sensor_id;sensor_type;location;lat;lon;timestamp;P1;durP1;ratioP1;P2;durP2;ratioP2
38499;SDS011;24269;51.894;4.622;2022-07-09T00:00:09;15.35;;;9.88;;
38499;SDS011;24269;51.894;4.622;2022-07-09T00:02:36;12.90;;;9.43;;
38499;SDS011;24269;51.894;4.622;2022-07-09T00:05:02;16.80;;;9.52;;
38499;SDS011;24269;51.894;4.622;2022-07-09T00:07:28;15.35;;;9.65;;
38499;SDS011;24269;51.894;4.622;2022-07-09T00:09:54;14.80;;;10.18;;
38499;SDS011;24269;51.894;4.622;2022-07-09T00:12:19;14.85;;;9.43;;
38499;SDS011;24269;51.894;4.622;2022-07-09T00:14:45;16.10;;;10.68;;
38499;SDS011;24269;51.894;4.622;2022-07-09T00:17:11;16.38;;;10.20;;
38499;SDS011;24269;51.894;4.622;2022-07-09T00:19:37;14.82;;;10.43;;
38499;SDS011;24269;51.894;4.622;2022-07-09T00:22:03;17.52;;;11.60;;
38499;SDS011;24269;51.894;4.622;2022-07-09T00:24:30;17.42;;;11.80;;
38499;SDS011;24269;51.894;4.622;2022-07-09T00:26:56;16.98;;;11.95;;
38499;SDS011;24269;51.894;4.622;2022-07-09T00:29:22;18.25;;;11.43;;
38499;SDS011;24269;51.894;4.622;2022-07-09T00:31:48;18.27;;;11.48;;
38499;SDS011;24269;51.894;4.622;2022-07-09T00:34:13;16.75;;;11.63;;
38499;SDS011;24269;51.894;4.622;2022-07-09T00:36:39;20.45;;;11.05;;
38499;SDS011;24269;51.894;4.622;2022-07-09T00:39:04;16.90;;;11.38;;
38499;SDS011;24269;51.894;4.622;2022-07-09T00:41:30;16.15;;;10.88;;
38499;SDS011;24269;51.894;4.622;2022-07-09T00:43:56;18.05;;;11.02;;
38499;SDS011;24269;51.894;4.622;2022-07-09T00:46:21;17.63;;;11.20;;
38499;SDS011;24269;51.894;4.622;2022-07-09T00:48:47;18.15;;;11.48;;
38499;SDS011;24269;51.894;4.622;2022-07-09T00:51:13;18.02;;;12.10;;
38499;SDS011;24269;51.894;4.622;2022-07-09T00:53:41;17.15;;;12.10;;
38499;SDS011;24269;51.894;4.622;2022-07-09T00:56:07;17.50;;;12.43;;
38499;SDS011;24269;51.894;4.622;2022-07-09T00:58:34;18.67;;;12.60;;
38499;SDS011;24269;51.894;4.622;2022-07-09T01:01:01;16.30;;;12.15;;
38499;SDS011;24269;51.894;4.622;2022-07-09T01:03:27;16.02;;;11.82;;
38499;SDS011;24269;51.894;4.622;2022-07-09T01:05:53;16.35;;;11.13;;
38499;SDS011;24269;51.894;4.622;2022-07-09T01:08:21;16.17;;;11.00;;
38499;SDS011;24269;51.894;4.622;2022-07-09T01:10:47;19.08;;;12.00;;
38499;SDS011;24269;51.894;4.622;2022-07-09T01:13:15;13.25;;;11.13;;
38499;SDS011;24269;51.894;4.622;2022-07-09T01:15:40;19.35;;;11.50;;
38499;SDS011;24269;51.894;4.622;2022-07-09T01:18:09;16.63;;;12.00;;
38499;SDS011;24269;51.894;4.622;2022-07-09T01:20:36;17.75;;;10.95;;
38499;SDS011;24269;51.894;4.622;2022-07-09T01:23:01;16.10;;;11.68;;
38499;SDS011;24269;51.894;4.622;2022-07-09T01:25:31;19.65;;;13.35;;
38499;SDS011;24269;51.894;4.622;2022-07-09T01:28:01;19.27;;;12.60;;
38499;SDS011;24269;51.894;4.622;2022-07-09T01:30:30;16.83;;;12.20;;
38499;SDS011;24269;51.894;4.622;2022-07-09T01:32:56;20.45;;;12.82;;
38499;SDS011;24269;51.894;4.622;2022-07-09T01:35:22;16.95;;;12.20;;
38499;SDS011;24269;51.894;4.622;2022-07-09T01:37:47;20.70;;;13.27;;
38499;SDS011;24269;51.894;4.622;2022-07-09T01:40:13;19.40;;;13.10;;
38499;SDS011;24269;51.894;4.622;2022-07-09T01:42:39;19.80;;;13.73;;
38499;SDS011;24269;51.894;4.622;2022-07-09T01:45:05;19.38;;;13.00;;
38499;SDS011;24269;51.894;4.622;2022-07-09T01:47:31;18.10;;;12.23;;
38499;SDS011;24269;51.894;4.622;2022-07-09T01:49:57;19.83;;;13.60;;
38499;SDS011;24269;51.894;4.622;2022-07-09T01:52:23;20.88;;;14.68;;
38499;SDS011;24269;51.894;4.622;2022-07-09T01:54:49;18.52;;;13.13;;
38499;SDS011;24269;51.894;4.622;2022-07-09T01:57:14;19.52;;;14.38;;
38499;SDS011;24269;51.894;4.622;2022-07-09T01:59:40;19.65;;;14.15;;
38499;SDS011;24269;51.894;4.622;2022-07-09T02:02:06;20.58;;;15.10;;
38499;SDS011;24269;51.894;4.622;2022-07-09T02:04:31;25.63;;;15.00;;
38499;SDS011;24269;51.894;4.622;2022-07-09T02:06:57;19.33;;;13.52;;
38499;SDS011;24269;51.894;4.622;2022-07-09T02:09:22;19.35;;;13.38;;
38499;SDS011;24269;51.894;4.622;2022-07-09T02:11:48;19.73;;;13.77;;
38499;SDS011;24269;51.894;4.622;2022-07-09T02:14:14;16.52;;;13.27;;
38499;SDS011;24269;51.894;4.622;2022-07-09T02:16:40;19.08;;;13.38;;
38499;SDS011;24269;51.894;4.622;2022-07-09T02:19:06;23.42;;;13.63;;
38499;SDS011;24269;51.894;4.622;2022-07-09T02:21:33;20.02;;;13.13;;
38499;SDS011;24269;51.894;4.622;2022-07-09T02:23:58;20.52;;;12.90;;
38499;SDS011;24269;51.894;4.622;2022-07-09T02:26:27;18.42;;;12.88;;
38499;SDS011;24269;51.894;4.622;2022-07-09T02:28:57;21.55;;;13.15;;
38499;SDS011;24269;51.894;4.622;2022-07-09T02:31:23;15.75;;;11.73;;
38499;SDS011;24269;51.894;4.622;2022-07-09T02:37:12;15.10;;;11.23;;
38499;SDS011;24269;51.894;4.622;2022-07-09T02:39:38;14.90;;;10.57;;
38499;SDS011;24269;51.894;4.622;2022-07-09T02:42:03;17.08;;;11.80;;
38499;SDS011;24269;51.894;4.622;2022-07-09T02:44:29;16.65;;;10.93;;
38499;SDS011;24269;51.894;4.622;2022-07-09T02:46:55;14.40;;;10.32;;
38499;SDS011;24269;51.894;4.622;2022-07-09T02:49:20;15.95;;;9.73;;
38499;SDS011;24269;51.894;4.622;2022-07-09T02:51:48;13.50;;;9.30;;
38499;SDS011;24269;51.894;4.622;2022-07-09T02:54:13;13.20;;;8.95;;
38499;SDS011;24269;51.894;4.622;2022-07-09T02:56:39;12.77;;;8.85;;
38499;SDS011;24269;51.894;4.622;2022-07-09T02:59:05;13.88;;;10.35;;
38499;SDS011;24269;51.894;4.622;2022-07-09T03:01:30;15.50;;;9.75;;
38499;SDS011;24269;51.894;4.622;2022-07-09T03:03:56;14.23;;;9.18;;
38499;SDS011;24269;51.894;4.622;2022-07-09T03:06:22;14.68;;;9.82;;
38499;SDS011;24269;51.894;4.622;2022-07-09T03:08:47;14.18;;;9.60;;
38499;SDS011;24269;51.894;4.622;2022-07-09T03:11:13;12.38;;;9.35;;
38499;SDS011;24269;51.894;4.622;2022-07-09T03:13:39;13.57;;;8.57;;
38499;SDS011;24269;51.894;4.622;2022-07-09T03:16:05;13.32;;;9.75;;
38499;SDS011;24269;51.894;4.622;2022-07-09T03:18:31;12.82;;;9.57;;
38499;SDS011;24269;51.894;4.622;2022-07-09T03:20:58;12.70;;;8.85;;
38499;SDS011;24269;51.894;4.622;2022-07-09T03:23:24;12.60;;;9.32;;
38499;SDS011;24269;51.894;4.622;2022-07-09T03:25:49;13.93;;;8.77;;
38499;SDS011;24269;51.894;4.622;2022-07-09T03:28:15;12.05;;;8.10;;
38499;SDS011;24269;51.894;4.622;2022-07-09T03:34:03;12.27;;;7.88;;
38499;SDS011;24269;51.894;4.622;2022-07-09T03:36:28;11.93;;;8.32;;
38499;SDS011;24269;51.894;4.622;2022-07-09T03:38:55;11.30;;;8.02;;
38499;SDS011;24269;51.894;4.622;2022-07-09T03:41:21;13.88;;;8.70;;
38499;SDS011;24269;51.894;4.622;2022-07-09T03:43:47;14.38;;;8.65;;
38499;SDS011;24269;51.894;4.622;2022-07-09T03:46:12;14.25;;;8.18;;
38499;SDS011;24269;51.894;4.622;2022-07-09T03:48:38;15.50;;;8.57;;
38499;SDS011;24269;51.894;4.622;2022-07-09T03:51:04;15.93;;;8.52;;
38499;SDS011;24269;51.894;4.622;2022-07-09T03:53:29;14.77;;;8.75;;
38499;SDS011;24269;51.894;4.622;2022-07-09T03:55:55;11.65;;;7.85;;
38499;SDS011;24269;51.894;4.622;2022-07-09T03:58:21;12.73;;;8.70;;
38499;SDS011;24269;51.894;4.622;2022-07-09T04:00:46;12.43;;;8.07;;
38499;SDS011;24269;51.894;4.622;2022-07-09T04:03:12;14.45;;;8.38;;
38499;SDS011;24269;51.894;4.622;2022-07-09T04:05:38;14.52;;;8.57;;
38499;SDS011;24269;51.894;4.622;2022-07-09T04:08:04;14.20;;;8.60;;
38499;SDS011;24269;51.894;4.622;2022-07-09T04:10:29;14.93;;;8.93;;
38499;SDS011;24269;51.894;4.622;2022-07-09T04:12:55;14.30;;;8.80;;
38499;SDS011;24269;51.894;4.622;2022-07-09T04:15:21;14.57;;;8.82;;
38499;SDS011;24269;51.894;4.622;2022-07-09T04:17:47;13.38;;;9.02;;
38499;SDS011;24269;51.894;4.622;2022-07-09T04:20:12;17.65;;;9.48;;
38499;SDS011;24269;51.894;4.622;2022-07-09T04:22:38;14.05;;;10.02;;
38499;SDS011;24269;51.894;4.622;2022-07-09T04:25:04;12.38;;;8.27;;
38499;SDS011;24269;51.894;4.622;2022-07-09T04:27:30;16.60;;;9.80;;
38499;SDS011;24269;51.894;4.622;2022-07-09T04:29:55;12.85;;;9.20;;
38499;SDS011;24269;51.894;4.622;2022-07-09T04:32:21;12.55;;;8.85;;
38499;SDS011;24269;51.894;4.622;2022-07-09T04:34:46;15.25;;;9.10;;
38499;SDS011;24269;51.894;4.622;2022-07-09T04:37:12;14.00;;;8.93;;
38499;SDS011;24269;51.894;4.622;2022-07-09T04:39:41;13.75;;;8.73;;
38499;SDS011;24269;51.894;4.622;2022-07-09T04:42:06;14.73;;;9.02;;
38499;SDS011;24269;51.894;4.622;2022-07-09T04:44:32;13.13;;;9.43;;
38499;SDS011;24269;51.894;4.622;2022-07-09T04:46:58;15.02;;;9.20;;
38499;SDS011;24269;51.894;4.622;2022-07-09T04:49:23;16.45;;;10.30;;
38499;SDS011;24269;51.894;4.622;2022-07-09T04:51:49;15.70;;;10.85;;
38499;SDS011;24269;51.894;4.622;2022-07-09T04:54:15;20.30;;;11.15;;
38499;SDS011;24269;51.894;4.622;2022-07-09T04:56:40;14.25;;;9.60;;
38499;SDS011;24269;51.894;4.622;2022-07-09T04:59:06;14.57;;;10.13;;
38499;SDS011;24269;51.894;4.622;2022-07-09T05:01:32;15.20;;;10.48;;
38499;SDS011;24269;51.894;4.622;2022-07-09T05:03:57;20.00;;;11.50;;
38499;SDS011;24269;51.894;4.622;2022-07-09T05:06:23;17.55;;;11.48;;
38499;SDS011;24269;51.894;4.622;2022-07-09T05:08:49;16.20;;;10.68;;
38499;SDS011;24269;51.894;4.622;2022-07-09T05:11:15;15.50;;;10.80;;
38499;SDS011;24269;51.894;4.622;2022-07-09T05:13:41;14.65;;;10.25;;
38499;SDS011;24269;51.894;4.622;2022-07-09T05:16:07;12.82;;;9.85;;
38499;SDS011;24269;51.894;4.622;2022-07-09T05:18:33;13.60;;;9.57;;
38499;SDS011;24269;51.894;4.622;2022-07-09T05:21:00;14.15;;;9.45;;
38499;SDS011;24269;51.894;4.622;2022-07-09T05:23:26;13.85;;;9.52;;
38499;SDS011;24269;51.894;4.622;2022-07-09T05:25:51;15.50;;;10.35;;
38499;SDS011;24269;51.894;4.622;2022-07-09T05:28:18;13.57;;;9.68;;
38499;SDS011;24269;51.894;4.622;2022-07-09T05:30:44;14.32;;;10.15;;
38499;SDS011;24269;51.894;4.622;2022-07-09T05:33:09;15.93;;;10.40;;
38499;SDS011;24269;51.894;4.622;2022-07-09T05:35:35;12.95;;;10.63;;
38499;SDS011;24269;51.894;4.622;2022-07-09T05:38:01;14.70;;;11.23;;
38499;SDS011;24269;51.894;4.622;2022-07-09T05:40:27;18.70;;;11.95;;
38499;SDS011;24269;51.894;4.622;2022-07-09T05:42:53;15.73;;;10.93;;
38499;SDS011;24269;51.894;4.622;2022-07-09T05:45:18;16.23;;;11.30;;
38499;SDS011;24269;51.894;4.622;2022-07-09T05:47:44;15.63;;;11.43;;
38499;SDS011;24269;51.894;4.622;2022-07-09T05:50:10;14.65;;;10.95;;
38499;SDS011;24269;51.894;4.622;2022-07-09T05:52:36;14.45;;;11.25;;
38499;SDS011;24269;51.894;4.622;2022-07-09T05:55:02;14.02;;;11.43;;
38499;SDS011;24269;51.894;4.622;2022-07-09T05:57:28;15.07;;;10.60;;
38499;SDS011;24269;51.894;4.622;2022-07-09T05:59:54;13.50;;;9.65;;
38499;SDS011;24269;51.894;4.622;2022-07-09T06:02:21;14.88;;;11.48;;
38499;SDS011;24269;51.894;4.622;2022-07-09T06:04:47;16.35;;;10.30;;
38499;SDS011;24269;51.894;4.622;2022-07-09T06:07:12;15.20;;;9.38;;
38499;SDS011;24269;51.894;4.622;2022-07-09T06:09:38;15.15;;;11.05;;
38499;SDS011;24269;51.894;4.622;2022-07-09T06:12:04;13.95;;;10.05;;
38499;SDS011;24269;51.894;4.622;2022-07-09T06:14:30;17.15;;;10.13;;
38499;SDS011;24269;51.894;4.622;2022-07-09T06:16:56;16.25;;;9.02;;
38499;SDS011;24269;51.894;4.622;2022-07-09T06:19:22;14.25;;;8.50;;
38499;SDS011;24269;51.894;4.622;2022-07-09T06:21:48;14.18;;;9.18;;
38499;SDS011;24269;51.894;4.622;2022-07-09T06:24:13;17.98;;;11.50;;
38499;SDS011;24269;51.894;4.622;2022-07-09T06:26:39;16.13;;;12.30;;
38499;SDS011;24269;51.894;4.622;2022-07-09T06:29:05;16.42;;;11.05;;
38499;SDS011;24269;51.894;4.622;2022-07-09T06:31:30;13.43;;;10.43;;
38499;SDS011;24269;51.894;4.622;2022-07-09T06:33:56;17.40;;;11.38;;
38499;SDS011;24269;51.894;4.622;2022-07-09T06:36:23;16.15;;;11.82;;
38499;SDS011;24269;51.894;4.622;2022-07-09T06:38:48;14.70;;;11.57;;
38499;SDS011;24269;51.894;4.622;2022-07-09T06:41:33;16.65;;;12.02;;
38499;SDS011;24269;51.894;4.622;2022-07-09T06:43:59;21.05;;;12.52;;
38499;SDS011;24269;51.894;4.622;2022-07-09T06:46:24;17.83;;;11.88;;
38499;SDS011;24269;51.894;4.622;2022-07-09T06:48:51;17.77;;;13.13;;
38499;SDS011;24269;51.894;4.622;2022-07-09T06:51:17;17.45;;;12.63;;
38499;SDS011;24269;51.894;4.622;2022-07-09T06:53:42;18.38;;;12.68;;
38499;SDS011;24269;51.894;4.622;2022-07-09T06:56:08;16.27;;;11.98;;
38499;SDS011;24269;51.894;4.622;2022-07-09T06:58:34;15.50;;;11.18;;
38499;SDS011;24269;51.894;4.622;2022-07-09T07:00:59;15.93;;;10.35;;
38499;SDS011;24269;51.894;4.622;2022-07-09T07:03:25;14.90;;;10.55;;
38499;SDS011;24269;51.894;4.622;2022-07-09T07:05:51;15.07;;;10.57;;
38499;SDS011;24269;51.894;4.622;2022-07-09T07:08:16;17.02;;;8.95;;
38499;SDS011;24269;51.894;4.622;2022-07-09T07:10:43;13.73;;;8.60;;
38499;SDS011;24269;51.894;4.622;2022-07-09T07:13:09;12.60;;;6.55;;
38499;SDS011;24269;51.894;4.622;2022-07-09T07:15:35;8.40;;;5.47;;
38499;SDS011;24269;51.894;4.622;2022-07-09T07:18:01;9.70;;;5.25;;
38499;SDS011;24269;51.894;4.622;2022-07-09T07:20:27;8.90;;;4.75;;
38499;SDS011;24269;51.894;4.622;2022-07-09T07:22:52;7.88;;;4.35;;
38499;SDS011;24269;51.894;4.622;2022-07-09T07:25:18;7.63;;;4.05;;
38499;SDS011;24269;51.894;4.622;2022-07-09T07:27:44;6.38;;;3.58;;
38499;SDS011;24269;51.894;4.622;2022-07-09T07:30:09;6.03;;;3.67;;
38499;SDS011;24269;51.894;4.622;2022-07-09T07:32:35;6.88;;;3.40;;
38499;SDS011;24269;51.894;4.622;2022-07-09T07:35:01;6.30;;;3.03;;
38499;SDS011;24269;51.894;4.622;2022-07-09T07:37:27;7.18;;;2.72;;
38499;SDS011;24269;51.894;4.622;2022-07-09T07:39:53;5.10;;;2.58;;
38499;SDS011;24269;51.894;4.622;2022-07-09T07:42:19;7.70;;;2.58;;
38499;SDS011;24269;51.894;4.622;2022-07-09T07:44:45;5.00;;;2.38;;
38499;SDS011;24269;51.894;4.622;2022-07-09T07:47:11;5.43;;;2.10;;
38499;SDS011;24269;51.894;4.622;2022-07-09T07:49:36;4.40;;;1.88;;
38499;SDS011;24269;51.894;4.622;2022-07-09T07:52:02;4.47;;;1.80;;
38499;SDS011;24269;51.894;4.622;2022-07-09T07:54:28;3.25;;;1.58;;
38499;SDS011;24269;51.894;4.622;2022-07-09T07:56:54;4.30;;;1.73;;
38499;SDS011;24269;51.894;4.622;2022-07-09T07:59:19;5.03;;;1.48;;
38499;SDS011;24269;51.894;4.622;2022-07-09T08:01:45;4.63;;;1.38;;
38499;SDS011;24269;51.894;4.622;2022-07-09T08:04:10;5.40;;;1.20;;
38499;SDS011;24269;51.894;4.622;2022-07-09T08:06:36;2.85;;;1.00;;
38499;SDS011;24269;51.894;4.622;2022-07-09T08:09:02;2.95;;;1.10;;
38499;SDS011;24269;51.894;4.622;2022-07-09T08:11:28;3.35;;;1.20;;
38499;SDS011;24269;51.894;4.622;2022-07-09T08:13:54;4.43;;;1.20;;
38499;SDS011;24269;51.894;4.622;2022-07-09T08:16:20;4.22;;;1.08;;
38499;SDS011;24269;51.894;4.622;2022-07-09T08:18:46;2.88;;;1.25;;
38499;SDS011;24269;51.894;4.622;2022-07-09T08:21:12;4.13;;;1.00;;
38499;SDS011;24269;51.894;4.622;2022-07-09T08:23:38;3.90;;;1.10;;
38499;SDS011;24269;51.894;4.622;2022-07-09T08:26:17;3.10;;;0.98;;
38499;SDS011;24269;51.894;4.622;2022-07-09T08:28:43;6.38;;;1.20;;
38499;SDS011;24269;51.894;4.622;2022-07-09T08:31:09;6.20;;;1.20;;
38499;SDS011;24269;51.894;4.622;2022-07-09T08:33:35;3.13;;;1.05;;
38499;SDS011;24269;51.894;4.622;2022-07-09T08:36:00;4.93;;;1.02;;
38499;SDS011;24269;51.894;4.622;2022-07-09T08:38:26;6.00;;;0.90;;
38499;SDS011;24269;51.894;4.622;2022-07-09T08:40:53;5.05;;;1.52;;
38499;SDS011;24269;51.894;4.622;2022-07-09T08:43:18;5.68;;;1.08;;
38499;SDS011;24269;51.894;4.622;2022-07-09T08:45:45;5.57;;;1.33;;
38499;SDS011;24269;51.894;4.622;2022-07-09T08:48:11;5.78;;;1.05;;
38499;SDS011;24269;51.894;4.622;2022-07-09T08:50:37;2.85;;;1.05;;
38499;SDS011;24269;51.894;4.622;2022-07-09T08:53:05;5.78;;;0.90;;
38499;SDS011;24269;51.894;4.622;2022-07-09T08:55:32;4.25;;;1.00;;
38499;SDS011;24269;51.894;4.622;2022-07-09T08:57:58;3.55;;;0.98;;
38499;SDS011;24269;51.894;4.622;2022-07-09T09:00:24;5.15;;;1.05;;
38499;SDS011;24269;51.894;4.622;2022-07-09T09:02:49;5.10;;;0.95;;
38499;SDS011;24269;51.894;4.622;2022-07-09T09:05:15;3.33;;;0.90;;
38499;SDS011;24269;51.894;4.622;2022-07-09T09:07:42;2.92;;;0.90;;
38499;SDS011;24269;51.894;4.622;2022-07-09T09:10:08;6.05;;;0.90;;
38499;SDS011;24269;51.894;4.622;2022-07-09T09:12:44;2.67;;;0.80;;
38499;SDS011;24269;51.894;4.622;2022-07-09T09:15:10;3.72;;;0.93;;
38499;SDS011;24269;51.894;4.622;2022-07-09T09:17:42;2.78;;;0.65;;
38499;SDS011;24269;51.894;4.622;2022-07-09T09:20:12;2.47;;;0.70;;
38499;SDS011;24269;51.894;4.622;2022-07-09T09:22:52;2.08;;;0.65;;
38499;SDS011;24269;51.894;4.622;2022-07-09T09:25:24;1.65;;;0.70;;
38499;SDS011;24269;51.894;4.622;2022-07-09T09:27:57;5.63;;;1.02;;
38499;SDS011;24269;51.894;4.622;2022-07-09T09:30:24;5.10;;;0.90;;
38499;SDS011;24269;51.894;4.622;2022-07-09T09:32:58;2.50;;;0.60;;
38499;SDS011;24269;51.894;4.622;2022-07-09T09:35:26;1.92;;;0.60;;
38499;SDS011;24269;51.894;4.622;2022-07-09T09:37:52;3.38;;;0.70;;
38499;SDS011;24269;51.894;4.622;2022-07-09T09:40:19;2.42;;;0.75;;
38499;SDS011;24269;51.894;4.622;2022-07-09T09:42:45;3.53;;;0.80;;
38499;SDS011;24269;51.894;4.622;2022-07-09T09:45:14;5.97;;;0.98;;
38499;SDS011;24269;51.894;4.622;2022-07-09T09:47:49;4.20;;;0.93;;
38499;SDS011;24269;51.894;4.622;2022-07-09T09:50:17;2.88;;;1.05;;
38499;SDS011;24269;51.894;4.622;2022-07-09T09:52:48;3.40;;;0.90;;
38499;SDS011;24269;51.894;4.622;2022-07-09T09:55:15;2.30;;;0.70;;
38499;SDS011;24269;51.894;4.622;2022-07-09T09:57:42;1.98;;;0.57;;
38499;SDS011;24269;51.894;4.622;2022-07-09T10:00:08;2.10;;;0.70;;
38499;SDS011;24269;51.894;4.622;2022-07-09T10:02:35;1.92;;;0.70;;
38499;SDS011;24269;51.894;4.622;2022-07-09T10:05:07;3.03;;;0.93;;
38499;SDS011;24269;51.894;4.622;2022-07-09T10:07:33;3.17;;;0.68;;
38499;SDS011;24269;51.894;4.622;2022-07-09T10:10:00;3.05;;;0.60;;
38499;SDS011;24269;51.894;4.622;2022-07-09T10:12:26;2.38;;;0.68;;
38499;SDS011;24269;51.894;4.622;2022-07-09T10:14:55;2.35;;;0.60;;
38499;SDS011;24269;51.894;4.622;2022-07-09T10:17:22;1.27;;;0.55;;
38499;SDS011;24269;51.894;4.622;2022-07-09T10:22:19;2.22;;;0.70;;
38499;SDS011;24269;51.894;4.622;2022-07-09T10:25:06;0.98;;;0.40;;
38499;SDS011;24269;51.894;4.622;2022-07-09T10:27:45;3.17;;;0.60;;
38499;SDS011;24269;51.894;4.622;2022-07-09T10:30:22;1.85;;;0.60;;
38499;SDS011;24269;51.894;4.622;2022-07-09T10:35:44;1.15;;;0.50;;
38499;SDS011;24269;51.894;4.622;2022-07-09T10:38:12;1.77;;;0.50;;
38499;SDS011;24269;51.894;4.622;2022-07-09T10:40:40;2.40;;;0.60;;
38499;SDS011;24269;51.894;4.622;2022-07-09T10:43:07;2.65;;;0.60;;
38499;SDS011;24269;51.894;4.622;2022-07-09T10:48:03;3.20;;;0.60;;
38499;SDS011;24269;51.894;4.622;2022-07-09T10:50:30;2.25;;;0.52;;
38499;SDS011;24269;51.894;4.622;2022-07-09T10:52:58;2.25;;;0.60;;
38499;SDS011;24269;51.894;4.622;2022-07-09T10:55:28;1.30;;;0.60;;
38499;SDS011;24269;51.894;4.622;2022-07-09T10:57:54;1.35;;;0.40;;
38499;SDS011;24269;51.894;4.622;2022-07-09T11:00:21;2.03;;;0.57;;
38499;SDS011;24269;51.894;4.622;2022-07-09T11:02:56;2.58;;;0.65;;
38499;SDS011;24269;51.894;4.622;2022-07-09T11:05:23;3.80;;;0.50;;
38499;SDS011;24269;51.894;4.622;2022-07-09T11:08:02;2.42;;;0.52;;
38499;SDS011;24269;51.894;4.622;2022-07-09T11:10:30;3.63;;;0.70;;
38499;SDS011;24269;51.894;4.622;2022-07-09T11:12:58;2.55;;;0.60;;
38499;SDS011;24269;51.894;4.622;2022-07-09T11:15:26;3.35;;;0.60;;
38499;SDS011;24269;51.894;4.622;2022-07-09T11:18:19;2.50;;;0.73;;
38499;SDS011;24269;51.894;4.622;2022-07-09T11:20:45;3.92;;;0.60;;
38499;SDS011;24269;51.894;4.622;2022-07-09T11:23:16;2.85;;;0.65;;
38499;SDS011;24269;51.894;4.622;2022-07-09T11:25:41;3.00;;;0.70;;
38499;SDS011;24269;51.894;4.622;2022-07-09T11:28:08;5.07;;;0.88;;
38499;SDS011;24269;51.894;4.622;2022-07-09T11:30:34;4.53;;;0.85;;
38499;SDS011;24269;51.894;4.622;2022-07-09T11:33:01;3.38;;;0.82;;
38499;SDS011;24269;51.894;4.622;2022-07-09T11:35:31;3.42;;;0.90;;
38499;SDS011;24269;51.894;4.622;2022-07-09T11:37:58;6.70;;;0.93;;
38499;SDS011;24269;51.894;4.622;2022-07-09T11:40:29;5.50;;;0.87;;
38499;SDS011;24269;51.894;4.622;2022-07-09T11:42:55;5.20;;;0.82;;
38499;SDS011;24269;51.894;4.622;2022-07-09T11:45:28;4.00;;;0.80;;
38499;SDS011;24269;51.894;4.622;2022-07-09T11:48:07;5.00;;;0.80;;
38499;SDS011;24269;51.894;4.622;2022-07-09T11:50:44;3.50;;;0.90;;
38499;SDS011;24269;51.894;4.622;2022-07-09T11:53:23;4.00;;;0.88;;
38499;SDS011;24269;51.894;4.622;2022-07-09T11:56:00;7.22;;;1.23;;
38499;SDS011;24269;51.894;4.622;2022-07-09T11:58:29;6.55;;;1.00;;
38499;SDS011;24269;51.894;4.622;2022-07-09T12:00:55;3.50;;;0.90;;
38499;SDS011;24269;51.894;4.622;2022-07-09T12:03:24;4.25;;;0.80;;
38499;SDS011;24269;51.894;4.622;2022-07-09T12:05:51;4.57;;;0.90;;
38499;SDS011;24269;51.894;4.622;2022-07-09T12:08:30;5.60;;;1.02;;
38499;SDS011;24269;51.894;4.622;2022-07-09T12:10:57;2.72;;;0.70;;
38499;SDS011;24269;51.894;4.622;2022-07-09T12:13:24;2.65;;;0.75;;
38499;SDS011;24269;51.894;4.622;2022-07-09T12:15:49;4.35;;;0.80;;
38499;SDS011;24269;51.894;4.622;2022-07-09T12:18:15;2.78;;;0.70;;
38499;SDS011;24269;51.894;4.622;2022-07-09T12:20:41;3.08;;;0.63;;
38499;SDS011;24269;51.894;4.622;2022-07-09T12:23:06;4.07;;;0.60;;
38499;SDS011;24269;51.894;4.622;2022-07-09T12:25:32;5.68;;;0.70;;
38499;SDS011;24269;51.894;4.622;2022-07-09T12:27:57;3.20;;;0.60;;
38499;SDS011;24269;51.894;4.622;2022-07-09T12:30:23;3.33;;;0.68;;
38499;SDS011;24269;51.894;4.622;2022-07-09T12:32:49;3.53;;;0.70;;
38499;SDS011;24269;51.894;4.622;2022-07-09T12:35:15;3.65;;;0.70;;
38499;SDS011;24269;51.894;4.622;2022-07-09T12:37:41;4.30;;;0.95;;
38499;SDS011;24269;51.894;4.622;2022-07-09T12:40:07;6.15;;;0.98;;
38499;SDS011;24269;51.894;4.622;2022-07-09T12:42:35;4.80;;;0.90;;
38499;SDS011;24269;51.894;4.622;2022-07-09T12:45:00;5.85;;;1.10;;
38499;SDS011;24269;51.894;4.622;2022-07-09T12:47:27;4.32;;;0.95;;
38499;SDS011;24269;51.894;4.622;2022-07-09T12:49:52;3.28;;;0.98;;
38499;SDS011;24269;51.894;4.622;2022-07-09T12:52:18;3.45;;;0.90;;
38499;SDS011;24269;51.894;4.622;2022-07-09T12:54:44;3.58;;;1.02;;
38499;SDS011;24269;51.894;4.622;2022-07-09T12:57:10;5.15;;;1.13;;
38499;SDS011;24269;51.894;4.622;2022-07-09T12:59:36;5.72;;;1.17;;
38499;SDS011;24269;51.894;4.622;2022-07-09T13:02:02;6.32;;;1.10;;
38499;SDS011;24269;51.894;4.622;2022-07-09T13:04:29;6.75;;;1.38;;
38499;SDS011;24269;51.894;4.622;2022-07-09T13:06:54;4.80;;;1.00;;
38499;SDS011;24269;51.894;4.622;2022-07-09T13:09:20;7.43;;;1.15;;
38499;SDS011;24269;51.894;4.622;2022-07-09T13:11:46;4.15;;;0.85;;
38499;SDS011;24269;51.894;4.622;2022-07-09T13:14:13;7.13;;;1.42;;
38499;SDS011;24269;51.894;4.622;2022-07-09T13:16:39;4.63;;;1.05;;
38499;SDS011;24269;51.894;4.622;2022-07-09T13:19:04;7.47;;;1.10;;
38499;SDS011;24269;51.894;4.622;2022-07-09T13:21:30;7.25;;;1.30;;
38499;SDS011;24269;51.894;4.622;2022-07-09T13:23:56;5.05;;;0.98;;
38499;SDS011;24269;51.894;4.622;2022-07-09T13:26:22;7.38;;;1.20;;
38499;SDS011;24269;51.894;4.622;2022-07-09T13:28:48;6.72;;;1.17;;
38499;SDS011;24269;51.894;4.622;2022-07-09T13:31:14;8.20;;;1.10;;
38499;SDS011;24269;51.894;4.622;2022-07-09T13:33:40;6.28;;;1.00;;
38499;SDS011;24269;51.894;4.622;2022-07-09T13:36:06;4.05;;;0.88;;
38499;SDS011;24269;51.894;4.622;2022-07-09T13:38:32;5.07;;;0.77;;
38499;SDS011;24269;51.894;4.622;2022-07-09T13:40:58;5.82;;;1.00;;
38499;SDS011;24269;51.894;4.622;2022-07-09T13:43:24;5.38;;;1.00;;
38499;SDS011;24269;51.894;4.622;2022-07-09T13:45:56;3.92;;;0.98;;
38499;SDS011;24269;51.894;4.622;2022-07-09T13:48:23;2.80;;;0.90;;
38499;SDS011;24269;51.894;4.622;2022-07-09T13:50:49;7.55;;;1.08;;
38499;SDS011;24269;51.894;4.622;2022-07-09T13:53:15;7.15;;;1.55;;
38499;SDS011;24269;51.894;4.622;2022-07-09T13:55:41;5.13;;;1.33;;
38499;SDS011;24269;51.894;4.622;2022-07-09T13:58:08;8.80;;;1.48;;
38499;SDS011;24269;51.894;4.622;2022-07-09T14:00:34;7.32;;;1.10;;
38499;SDS011;24269;51.894;4.622;2022-07-09T14:03:00;7.53;;;1.20;;
38499;SDS011;24269;51.894;4.622;2022-07-09T14:05:25;5.40;;;1.35;;
38499;SDS011;24269;51.894;4.622;2022-07-09T14:07:51;5.00;;;1.25;;
38499;SDS011;24269;51.894;4.622;2022-07-09T14:10:17;7.60;;;1.50;;
38499;SDS011;24269;51.894;4.622;2022-07-09T14:12:42;7.15;;;1.30;;
38499;SDS011;24269;51.894;4.622;2022-07-09T14:15:08;6.07;;;1.50;;
38499;SDS011;24269;51.894;4.622;2022-07-09T14:17:34;4.40;;;1.17;;
38499;SDS011;24269;51.894;4.622;2022-07-09T14:20:00;6.20;;;1.10;;
38499;SDS011;24269;51.894;4.622;2022-07-09T14:22:26;5.45;;;1.33;;
38499;SDS011;24269;51.894;4.622;2022-07-09T14:24:52;6.45;;;1.30;;
38499;SDS011;24269;51.894;4.622;2022-07-09T14:27:18;6.40;;;1.50;;
38499;SDS011;24269;51.894;4.622;2022-07-09T14:29:44;6.68;;;1.27;;
38499;SDS011;24269;51.894;4.622;2022-07-09T14:32:10;5.88;;;1.20;;
38499;SDS011;24269;51.894;4.622;2022-07-09T14:34:36;4.45;;;1.33;;
38499;SDS011;24269;51.894;4.622;2022-07-09T14:37:02;6.45;;;1.20;;
38499;SDS011;24269;51.894;4.622;2022-07-09T14:39:27;6.95;;;1.40;;
38499;SDS011;24269;51.894;4.622;2022-07-09T14:41:53;6.20;;;1.27;;
38499;SDS011;24269;51.894;4.622;2022-07-09T14:44:19;9.20;;;1.20;;
38499;SDS011;24269;51.894;4.622;2022-07-09T14:46:45;7.47;;;1.23;;
38499;SDS011;24269;51.894;4.622;2022-07-09T14:49:11;8.43;;;1.33;;